sim
Sign-in with your pilot id or email,
or register
Callsign
Passwort

Schedule Details

Flight Number: DLH2121
Departure: Bremen Airport (EDDW) at 17:25
Arrival: Munich Airport (EDDM) at 18:35
Route: Lufthansa Passenger Schedule. Enter filed route here before submitting Pirep.

Weather Information
Getting current METAR information for EDDW 260820Z VRB01KT CAVOK 12/08 Q0998 NOSIG
Getting current METAR information for EDDM 260820Z 27015KT 9999 SCT019 BKN028 08/05 Q1000 TEMPO 26015G25KT

Schedule Frequency

Route Map